createdAt,value
2023-05-20T00:00:49.024Z,61.73
2023-05-20T00:03:17.725Z,61.77
2023-05-20T00:05:44.540Z,61.96
2023-05-20T00:08:11.217Z,61.73
2023-05-20T00:10:38.483Z,62.32
2023-05-20T00:13:06.548Z,62.04
2023-05-20T00:15:34.770Z,61.73
2023-05-20T00:18:02.459Z,62.15
2023-05-20T00:20:29.044Z,62.23
2023-05-20T00:22:55.825Z,62.27
2023-05-20T00:25:22.429Z,62.35
2023-05-20T00:27:48.971Z,62.55
2023-05-20T00:30:15.467Z,62.63
2023-05-20T00:32:42.090Z,63.05
2023-05-20T00:35:09.353Z,63.35
2023-05-20T00:37:35.885Z,63.39
2023-05-20T00:40:02.665Z,63.54
2023-05-20T00:42:29.361Z,63.33
2023-05-20T00:44:56.593Z,63.41
2023-05-20T00:47:28.834Z,63.30
2023-05-20T00:49:56.347Z,63.69
2023-05-20T00:52:23.464Z,63.52
2023-05-20T00:54:51.555Z,64.10
2023-05-20T00:57:20.122Z,64.23
2023-05-20T00:59:46.901Z,64.30
2023-05-20T01:02:13.810Z,63.84
2023-05-20T01:04:41.784Z,63.95
2023-05-20T01:07:08.415Z,64.42
2023-05-20T01:09:35.002Z,64.72
2023-05-20T01:12:02.396Z,64.89
2023-05-20T01:14:34.255Z,64.23
2023-05-20T01:17:09.267Z,65.25
2023-05-20T01:19:42.092Z,65.36
2023-05-20T01:22:12.620Z,65.06
2023-05-20T01:24:41.978Z,65.15
2023-05-20T01:27:10.559Z,65.39
2023-05-20T01:29:37.930Z,65.42
2023-05-20T01:32:07.822Z,65.44
2023-05-20T01:34:36.234Z,65.56
2023-05-20T01:37:05.822Z,65.47
2023-05-20T01:39:36.847Z,65.39
2023-05-20T01:42:04.202Z,65.83
2023-05-20T01:44:30.999Z,65.98
2023-05-20T01:46:57.619Z,66.39
2023-05-20T01:49:24.303Z,66.24
2023-05-20T01:51:50.820Z,66.16
2023-05-20T01:54:17.410Z,66.13
2023-05-20T01:56:44.622Z,66.67
2023-05-20T01:59:11.106Z,66.17
2023-05-20T02:01:37.762Z,66.42
2023-05-20T02:04:04.449Z,66.56
2023-05-20T02:06:31.188Z,66.97
2023-05-20T02:08:57.812Z,66.94
2023-05-20T02:11:24.318Z,67.27
2023-05-20T02:13:51.469Z,66.76
2023-05-20T02:16:18.329Z,67.34
2023-05-20T02:18:44.986Z,67.46
2023-05-20T02:21:11.695Z,67.34
2023-05-20T02:23:38.253Z,67.61
2023-05-20T02:26:05.657Z,67.51
2023-05-20T02:28:32.202Z,67.72
2023-05-20T02:30:58.731Z,67.74
2023-05-20T02:33:28.000Z,68.38
2023-05-20T02:35:54.669Z,67.93
2023-05-20T02:38:23.058Z,68.60
2023-05-20T02:40:49.587Z,68.39
2023-05-20T02:43:16.103Z,68.64
2023-05-20T02:45:43.051Z,68.72
2023-05-20T02:48:09.797Z,68.77
2023-05-20T02:50:39.123Z,68.49
2023-05-20T02:53:05.964Z,68.58
2023-05-20T02:55:35.946Z,68.95
2023-05-20T02:58:03.785Z,69.08
2023-05-20T03:00:31.535Z,69.29
2023-05-20T03:02:59.093Z,69.26
2023-05-20T03:05:27.398Z,69.50
2023-05-20T03:07:54.009Z,69.87
2023-05-20T03:10:20.574Z,69.83
2023-05-20T03:12:47.103Z,69.96
2023-05-20T03:15:13.583Z,69.53
2023-05-20T03:17:41.401Z,70.25
2023-05-20T03:20:08.420Z,70.34
2023-05-20T03:22:34.999Z,70.38
2023-05-20T03:25:02.322Z,70.08
2023-05-20T03:27:28.899Z,70.28
2023-05-20T03:29:55.425Z,70.60
2023-05-20T03:32:21.959Z,70.32
2023-05-20T03:34:48.499Z,70.64
2023-05-20T03:37:15.393Z,70.32
2023-05-20T03:39:41.981Z,70.63
2023-05-20T03:42:08.537Z,70.46
2023-05-20T03:44:35.059Z,70.71
2023-05-20T03:47:01.636Z,70.66
2023-05-20T03:49:28.206Z,70.77
2023-05-20T03:51:54.740Z,71.13
2023-05-20T03:54:21.374Z,71.20
2023-05-20T03:56:49.268Z,71.00
2023-05-20T03:59:15.836Z,71.30
2023-05-20T04:01:42.598Z,71.13
2023-05-20T04:04:09.345Z,70.99
2023-05-20T04:06:36.092Z,71.48
2023-05-20T04:09:02.633Z,71.17
2023-05-20T04:11:29.171Z,71.11
2023-05-20T04:13:55.776Z,71.44
2023-05-20T04:16:22.324Z,71.33
2023-05-20T04:18:48.950Z,71.55
2023-05-20T04:21:15.523Z,71.71
2023-05-20T04:23:42.016Z,71.60
2023-05-20T04:26:08.581Z,71.43
2023-05-20T04:28:37.725Z,71.29
2023-05-20T04:31:04.876Z,71.42
2023-05-20T04:33:32.926Z,71.53
2023-05-20T04:36:01.461Z,71.00
2023-05-20T04:38:30.064Z,70.75
2023-05-20T04:40:58.205Z,71.38
2023-05-20T04:43:25.966Z,71.14
2023-05-20T04:45:53.870Z,71.17
2023-05-20T04:48:20.565Z,71.42
2023-05-20T04:50:47.105Z,71.17
2023-05-20T04:53:13.658Z,71.34
2023-05-20T04:55:40.254Z,71.13
2023-05-20T04:58:08.142Z,71.25
2023-05-20T05:00:34.671Z,71.19
2023-05-20T05:03:01.445Z,71.22
2023-05-20T05:05:28.033Z,71.00
2023-05-20T05:07:54.563Z,71.40
2023-05-20T05:10:21.917Z,71.25
2023-05-20T05:12:48.402Z,70.96
2023-05-20T05:15:14.999Z,71.00
2023-05-20T05:17:41.637Z,70.38
2023-05-20T05:20:09.403Z,71.03
2023-05-20T05:22:37.035Z,70.67
2023-05-20T05:25:04.049Z,70.61
2023-05-20T05:27:30.605Z,70.21
2023-05-20T05:29:57.149Z,70.10
2023-05-20T05:32:23.961Z,70.23
2023-05-20T05:34:50.883Z,70.39
2023-05-20T05:37:17.412Z,69.86
2023-05-20T05:39:43.954Z,69.59
2023-05-20T05:42:10.601Z,69.83
2023-05-20T05:44:37.185Z,69.60
2023-05-20T05:47:06.001Z,69.05
2023-05-20T05:49:33.607Z,68.87
2023-05-20T05:52:00.479Z,68.52
2023-05-20T05:54:27.113Z,68.84
2023-05-20T05:56:54.359Z,68.50
2023-05-20T05:59:21.020Z,67.38
2023-05-20T06:01:47.676Z,67.48
2023-05-20T06:04:14.468Z,66.97
2023-05-20T06:06:41.672Z,66.35
2023-05-20T06:09:08.342Z,65.31
2023-05-20T06:11:34.909Z,65.68
2023-05-20T06:14:02.112Z,65.10
2023-05-20T06:16:28.684Z,64.67
2023-05-20T06:19:03.379Z,63.97
2023-05-20T06:21:30.473Z,63.63
2023-05-20T06:23:56.976Z,63.85
2023-05-20T06:26:23.481Z,63.74
2023-05-20T06:28:50.044Z,63.79
2023-05-20T06:31:16.767Z,63.29
2023-05-20T06:33:43.430Z,63.22
2023-05-20T06:36:10.025Z,63.08
2023-05-20T06:38:36.607Z,62.41
2023-05-20T06:41:03.226Z,62.10
2023-05-20T06:43:30.005Z,61.21
2023-05-20T06:45:56.592Z,60.42
2023-05-20T06:48:23.221Z,60.00
2023-05-20T06:50:49.868Z,59.92
2023-05-20T06:53:16.950Z,60.15
2023-05-20T06:55:43.470Z,59.87
2023-05-20T06:58:09.968Z,58.44
2023-05-20T07:00:36.482Z,59.47
2023-05-20T07:03:03.070Z,59.62
2023-05-20T07:05:29.635Z,60.68
2023-05-20T07:07:56.186Z,60.59
2023-05-20T07:10:22.773Z,60.22
2023-05-20T07:12:49.357Z,59.99
2023-05-20T07:15:15.985Z,59.84
2023-05-20T07:17:42.560Z,59.41
2023-05-20T07:20:09.370Z,58.90
2023-05-20T07:22:35.985Z,58.42
2023-05-20T07:25:03.217Z,58.49
2023-05-20T07:27:29.762Z,58.94
2023-05-20T07:29:56.460Z,57.92
2023-05-20T07:32:23.078Z,57.52
2023-05-20T07:34:49.707Z,56.88
2023-05-20T07:37:16.618Z,56.95
2023-05-20T07:39:43.206Z,57.49
2023-05-20T07:42:09.809Z,57.58
2023-05-20T07:44:36.652Z,56.81
2023-05-20T07:47:03.356Z,54.95
2023-05-20T07:49:30.000Z,55.14
2023-05-20T07:51:56.607Z,55.83
2023-05-20T07:54:23.682Z,54.91
2023-05-20T07:56:50.274Z,56.30
2023-05-20T07:59:16.810Z,56.27
2023-05-20T08:01:43.360Z,55.35
2023-05-20T08:04:10.106Z,53.96
2023-05-20T08:06:38.496Z,53.69
2023-05-20T08:09:05.127Z,53.75
2023-05-20T08:11:31.722Z,53.76
2023-05-20T08:13:58.362Z,53.52
2023-05-20T08:16:25.010Z,53.58
2023-05-20T08:18:51.655Z,53.27
2023-05-20T08:21:18.234Z,54.33
2023-05-20T08:23:44.894Z,51.89
2023-05-20T08:26:11.437Z,51.96
2023-05-20T08:28:38.199Z,50.96
2023-05-20T08:31:05.119Z,50.99
2023-05-20T08:33:31.649Z,49.98
2023-05-20T08:35:58.233Z,50.22
2023-05-20T08:38:24.741Z,49.21
2023-05-20T08:40:54.906Z,50.48
2023-05-20T08:43:22.684Z,50.18
2023-05-20T08:45:50.247Z,49.29
2023-05-20T08:48:19.492Z,47.80
2023-05-20T08:50:50.299Z,48.88
2023-05-20T08:53:17.417Z,49.41
2023-05-20T08:55:48.991Z,46.72
2023-05-20T08:58:16.204Z,48.24
2023-05-20T09:00:42.736Z,46.69
2023-05-20T09:03:10.100Z,47.27
2023-05-20T09:05:37.117Z,47.37
2023-05-20T09:08:10.120Z,47.71
2023-05-20T09:10:38.195Z,47.74
2023-05-20T09:13:06.110Z,46.66
2023-05-20T09:15:33.787Z,46.17
2023-05-20T09:18:03.124Z,46.58
2023-05-20T09:20:30.413Z,46.52
2023-05-20T09:23:01.987Z,46.54
2023-05-20T09:25:29.452Z,45.98
2023-05-20T09:27:56.974Z,45.39
2023-05-20T09:30:24.414Z,45.42
2023-05-20T09:32:55.456Z,45.72
2023-05-20T09:35:23.702Z,44.79
2023-05-20T09:37:56.450Z,45.35
2023-05-20T09:40:29.550Z,44.02
2023-05-20T09:43:03.318Z,44.88
2023-05-20T09:45:30.547Z,44.87
2023-05-20T09:47:58.268Z,45.29
2023-05-20T09:50:25.753Z,45.24
2023-05-20T09:52:56.291Z,45.07
2023-05-20T09:55:25.002Z,46.29
2023-05-20T09:57:53.265Z,46.60
2023-05-20T10:00:21.757Z,45.27
2023-05-20T10:02:52.154Z,45.47
2023-05-20T10:05:25.805Z,45.34
2023-05-20T10:08:30.065Z,45.11
2023-05-20T10:11:17.397Z,44.34
2023-05-20T10:14:01.146Z,44.74
2023-05-20T10:16:54.105Z,44.58
2023-05-20T10:19:30.263Z,44.15
2023-05-20T10:22:03.428Z,43.47
2023-05-20T10:24:36.139Z,44.21
2023-05-20T10:35:03.201Z,43.83
2023-05-20T10:37:32.156Z,43.06
2023-05-20T10:40:05.893Z,43.45
2023-05-20T10:42:32.538Z,43.73
2023-05-20T10:44:59.193Z,42.40
2023-05-20T10:47:26.643Z,43.02
2023-05-20T10:49:54.577Z,42.73
2023-05-20T10:52:21.533Z,43.28
2023-05-20T10:54:54.905Z,42.91
2023-05-20T10:57:22.500Z,42.90
2023-05-20T10:59:49.659Z,41.51
2023-05-20T11:02:17.157Z,40.91
2023-05-20T11:04:44.754Z,40.51
2023-05-20T11:07:11.650Z,41.13
2023-05-20T11:09:38.906Z,41.41
2023-05-20T11:12:06.319Z,41.88
2023-05-20T11:14:32.910Z,42.38
2023-05-20T11:17:00.505Z,42.33
2023-05-20T11:19:27.773Z,42.63
2023-05-20T11:21:54.724Z,42.16
2023-05-20T11:24:27.212Z,42.28
2023-05-20T11:26:54.917Z,41.98
2023-05-20T11:29:22.349Z,42.89
2023-05-20T11:31:51.298Z,41.94
2023-05-20T11:34:24.150Z,41.84
2023-05-20T11:36:58.383Z,42.83
2023-05-20T11:39:25.236Z,41.20
2023-05-20T11:41:51.897Z,40.86
2023-05-20T11:44:20.296Z,41.07
2023-05-20T11:46:48.018Z,40.71
2023-05-20T11:49:15.702Z,41.60
2023-05-20T11:51:43.533Z,40.78
2023-05-20T11:54:10.633Z,41.77
2023-05-20T11:56:39.006Z,41.62
2023-05-20T11:59:07.686Z,41.18
2023-05-20T12:01:37.850Z,40.30
2023-05-20T12:04:05.712Z,41.12
2023-05-20T12:06:32.592Z,40.70
2023-05-20T12:09:06.756Z,41.07
2023-05-20T12:11:35.788Z,40.71
2023-05-20T12:14:04.164Z,40.71
2023-05-20T12:16:33.283Z,41.20
2023-05-20T12:19:00.597Z,40.98
2023-05-20T12:21:29.250Z,40.81
2023-05-20T12:23:58.102Z,42.37
2023-05-20T12:26:25.979Z,41.93
2023-05-20T12:28:53.066Z,40.71
2023-05-20T12:31:20.016Z,40.37
2023-05-20T12:33:46.832Z,40.03
2023-05-20T12:36:14.193Z,40.37
2023-05-20T12:38:40.828Z,40.30
2023-05-20T12:41:07.468Z,40.82
2023-05-20T12:43:37.012Z,41.66
2023-05-20T12:46:04.163Z,41.19
2023-05-20T12:48:30.883Z,41.60
2023-05-20T12:50:57.434Z,40.83
2023-05-20T12:53:24.114Z,41.32
2023-05-20T12:55:50.868Z,41.40
2023-05-20T12:58:17.348Z,40.27
2023-05-20T13:00:44.063Z,40.94
2023-05-20T13:03:11.217Z,41.29
2023-05-20T13:05:38.123Z,42.28
2023-05-20T13:08:04.974Z,41.43
2023-05-20T13:10:31.480Z,42.35
2023-05-20T13:12:58.159Z,42.62
2023-05-20T13:15:24.807Z,41.73
2023-05-20T13:17:51.473Z,42.01
2023-05-20T13:20:32.565Z,41.66
2023-05-20T13:22:59.241Z,42.00
2023-05-20T13:25:25.895Z,41.42
2023-05-20T13:27:52.426Z,40.91
2023-05-20T13:30:18.993Z,41.32
2023-05-20T13:32:46.187Z,40.60
2023-05-20T13:35:13.112Z,40.90
2023-05-20T13:37:39.742Z,41.42
2023-05-20T13:40:07.237Z,41.30
2023-05-20T13:42:33.809Z,40.18
2023-05-20T13:45:00.496Z,40.31
2023-05-20T13:47:27.023Z,40.68
2023-05-20T13:49:53.624Z,40.00
2023-05-20T13:52:20.218Z,39.83
2023-05-20T13:54:48.655Z,39.81
2023-05-20T13:57:15.799Z,40.59
2023-05-20T13:59:42.319Z,40.60
2023-05-20T14:02:08.941Z,41.11
2023-05-20T14:04:38.175Z,40.89
2023-05-20T14:07:07.686Z,41.80
2023-05-20T14:09:36.304Z,41.97
2023-05-20T14:12:02.894Z,42.84
2023-05-20T14:14:29.461Z,41.69
2023-05-20T14:16:55.955Z,41.66
2023-05-20T14:19:23.640Z,41.50
2023-05-20T14:21:50.220Z,41.81
2023-05-20T14:24:16.953Z,41.94
2023-05-20T14:26:43.696Z,42.08
2023-05-20T14:29:10.416Z,41.76
2023-05-20T14:31:39.353Z,41.66
2023-05-20T14:34:06.146Z,41.48
2023-05-20T14:36:32.942Z,41.41
2023-05-20T14:38:59.490Z,44.06
2023-05-20T14:41:26.041Z,43.57
2023-05-20T14:43:52.612Z,40.84
2023-05-20T14:46:19.284Z,41.99
2023-05-20T14:48:45.874Z,42.27
2023-05-20T14:51:12.616Z,42.39
2023-05-20T14:53:39.265Z,42.40
2023-05-20T14:56:06.010Z,43.15
2023-05-20T14:58:32.614Z,43.68
2023-05-20T15:00:59.250Z,41.56
2023-05-20T15:03:27.889Z,42.91
2023-05-20T15:05:54.609Z,42.59
2023-05-20T15:08:21.564Z,42.47
2023-05-20T15:10:48.181Z,42.59
2023-05-20T15:13:16.044Z,42.76
2023-05-20T15:15:42.894Z,41.99
2023-05-20T15:18:09.491Z,42.98
2023-05-20T15:20:36.203Z,42.38
2023-05-20T15:23:03.961Z,42.98
2023-05-20T15:25:30.660Z,43.58
2023-05-20T15:27:57.396Z,42.47
2023-05-20T15:30:24.401Z,43.46
2023-05-20T15:32:52.168Z,43.00
2023-05-20T15:35:18.737Z,43.14
2023-05-20T15:37:47.813Z,42.21
2023-05-20T15:40:16.690Z,42.72
2023-05-20T15:42:43.243Z,43.62
2023-05-20T15:45:10.231Z,43.65
2023-05-20T15:47:37.997Z,43.73
2023-05-20T15:50:08.383Z,43.79
2023-05-20T15:52:35.065Z,43.62
2023-05-20T15:55:01.651Z,43.44
2023-05-20T15:57:29.338Z,43.79
2023-05-20T15:59:56.818Z,43.25
2023-05-20T16:02:24.633Z,43.86
2023-05-20T16:04:52.313Z,44.22
2023-05-20T16:07:19.081Z,43.44
2023-05-20T16:09:45.920Z,44.00
2023-05-20T16:12:12.557Z,44.05
2023-05-20T16:14:39.094Z,44.30
2023-05-20T16:17:05.667Z,44.49
2023-05-20T16:19:32.432Z,44.57
2023-05-20T16:21:59.108Z,43.70
2023-05-20T16:24:25.952Z,43.29
2023-05-20T16:26:53.888Z,43.95
2023-05-20T16:29:20.760Z,44.67
2023-05-20T16:31:47.516Z,44.82
2023-05-20T16:34:49.974Z,45.13
2023-05-20T16:37:16.894Z,43.89
2023-05-20T16:39:43.549Z,43.89
2023-05-20T16:42:10.351Z,43.87
2023-05-20T16:44:40.127Z,43.68
2023-05-20T16:47:07.468Z,43.65
2023-05-20T16:49:34.473Z,44.30
2023-05-20T16:52:01.171Z,44.97
2023-05-20T16:54:27.781Z,45.27
2023-05-20T16:56:54.384Z,45.15
2023-05-20T16:59:21.279Z,45.47
2023-05-20T17:01:47.783Z,43.82
2023-05-20T17:04:14.406Z,44.00
2023-05-20T17:06:41.111Z,44.18
2023-05-20T17:09:08.787Z,45.21
2023-05-20T17:11:35.676Z,44.79
2023-05-20T17:14:03.196Z,44.25
2023-05-20T17:16:29.890Z,45.10
2023-05-20T17:18:57.545Z,43.79
2023-05-20T17:21:24.285Z,44.49
2023-05-20T17:23:51.214Z,44.35
2023-05-20T17:26:17.844Z,44.62
2023-05-20T17:28:44.423Z,44.24
2023-05-20T17:31:11.398Z,44.34
2023-05-20T17:33:38.140Z,44.91
2023-05-20T17:36:05.133Z,45.22
2023-05-20T17:38:31.735Z,45.61
2023-05-20T17:40:58.256Z,44.06
2023-05-20T17:43:27.165Z,44.48
2023-05-20T17:45:53.820Z,44.63
2023-05-20T17:48:20.839Z,44.78
2023-05-20T17:50:47.636Z,45.20
2023-05-20T17:53:14.254Z,46.89
2023-05-20T17:55:41.105Z,45.54
2023-05-20T17:58:07.750Z,46.64
2023-05-20T18:00:34.825Z,46.68
2023-05-20T18:03:01.773Z,45.57
2023-05-20T18:05:28.773Z,45.47
2023-05-20T18:07:55.984Z,46.87
2023-05-20T18:10:22.628Z,46.17
2023-05-20T18:12:49.232Z,46.24
2023-05-20T18:15:18.260Z,46.10
2023-05-20T18:17:45.890Z,46.07
2023-05-20T18:20:13.465Z,46.00
2023-05-20T18:22:45.073Z,46.89
2023-05-20T18:25:12.837Z,45.78
2023-05-20T18:27:40.420Z,45.67
2023-05-20T18:30:08.154Z,45.61
2023-05-20T18:32:34.704Z,45.23
2023-05-20T18:35:01.364Z,45.52
2023-05-20T18:37:27.994Z,45.82
2023-05-20T18:39:58.104Z,46.05
2023-05-20T18:42:24.915Z,46.23
2023-05-20T18:44:51.669Z,46.31
2023-05-20T18:47:18.355Z,46.87
2023-05-20T18:49:45.502Z,47.15
2023-05-20T18:52:12.166Z,47.70
2023-05-20T18:54:38.773Z,47.22
2023-05-20T18:57:05.880Z,47.45
2023-05-20T18:59:32.452Z,47.34
2023-05-20T19:01:59.032Z,47.75
2023-05-20T19:04:26.062Z,47.93
2023-05-20T19:06:53.724Z,48.32
2023-05-20T19:09:20.393Z,47.62
2023-05-20T19:11:46.996Z,48.29
2023-05-20T19:14:13.560Z,47.39
2023-05-20T19:16:40.314Z,47.93
2023-05-20T19:19:07.057Z,47.72
2023-05-20T19:21:33.835Z,47.21
2023-05-20T19:24:00.530Z,47.74
2023-05-20T19:26:27.169Z,47.95
2023-05-20T19:28:53.693Z,48.15
2023-05-20T19:31:22.429Z,48.18
2023-05-20T19:33:49.591Z,48.84
2023-05-20T19:36:16.612Z,48.77
2023-05-20T19:38:44.299Z,49.47
2023-05-20T19:41:13.295Z,49.40
2023-05-20T19:43:41.166Z,49.80
2023-05-20T19:46:07.720Z,49.55
2023-05-20T19:48:34.630Z,50.06
2023-05-20T19:51:02.070Z,50.18
2023-05-20T19:53:28.672Z,49.72
2023-05-20T19:55:55.530Z,50.41
2023-05-20T19:58:22.496Z,49.96
2023-05-20T20:00:49.095Z,50.61
2023-05-20T20:03:15.798Z,50.79
2023-05-20T20:05:42.480Z,50.91
2023-05-20T20:08:09.207Z,51.21
2023-05-20T20:10:37.488Z,51.46
2023-05-20T20:13:04.327Z,51.50
2023-05-20T20:15:31.994Z,52.71
2023-05-20T20:18:01.271Z,52.03
2023-05-20T20:20:27.901Z,54.07
2023-05-20T20:22:54.537Z,54.75
2023-05-20T20:25:21.255Z,53.91
2023-05-20T20:27:48.506Z,54.02
2023-05-20T20:30:15.472Z,54.88
2023-05-20T20:32:44.539Z,54.45
2023-05-20T20:35:11.294Z,55.55
2023-05-20T20:37:38.361Z,55.69
2023-05-20T20:40:09.043Z,55.84
2023-05-20T20:42:38.359Z,54.95
2023-05-20T20:45:07.427Z,54.29
2023-05-20T20:47:33.951Z,54.35
2023-05-20T20:50:00.727Z,54.10
2023-05-20T20:52:27.383Z,53.51
2023-05-20T20:54:53.905Z,53.40
2023-05-20T20:57:21.951Z,53.18
2023-05-20T20:59:48.654Z,53.66
2023-05-20T21:02:16.409Z,53.60
2023-05-20T21:04:43.504Z,54.42
2023-05-20T21:07:10.382Z,54.16
2023-05-20T21:09:36.897Z,54.16
2023-05-20T21:12:06.525Z,53.96
2023-05-20T21:14:33.212Z,54.51
2023-05-20T21:16:59.782Z,54.14
2023-05-20T21:19:26.782Z,54.60
2023-05-20T21:21:53.697Z,54.26
2023-05-20T21:24:20.276Z,54.40
2023-05-20T21:26:47.180Z,54.52
2023-05-20T21:29:13.733Z,54.82
2023-05-20T21:31:40.436Z,54.80
2023-05-20T21:34:06.944Z,55.07
2023-05-20T21:36:33.566Z,54.98
2023-05-20T21:39:00.179Z,54.95
2023-05-20T21:41:27.261Z,55.08
2023-05-20T21:43:53.852Z,54.92
2023-05-20T21:46:20.449Z,55.09
2023-05-20T21:48:47.052Z,54.85
2023-05-20T21:51:13.665Z,55.13
2023-05-20T21:53:40.418Z,55.29
2023-05-20T21:56:07.154Z,55.48
2023-05-20T21:58:36.604Z,55.53
2023-05-20T22:01:03.731Z,55.69
2023-05-20T22:03:30.406Z,56.01
2023-05-20T22:05:57.090Z,56.14
2023-05-20T22:08:23.732Z,56.23
2023-05-20T22:10:50.359Z,56.82
2023-05-20T22:13:17.211Z,56.25
2023-05-20T22:15:43.803Z,56.28
2023-05-20T22:18:12.274Z,56.47
2023-05-20T22:20:39.833Z,56.42
2023-05-20T22:23:06.413Z,56.64
2023-05-20T22:25:35.072Z,56.70
2023-05-20T22:28:04.485Z,57.13
2023-05-20T22:30:31.231Z,57.36
2023-05-20T22:35:24.933Z,57.69
2023-05-20T22:37:51.886Z,57.73
2023-05-20T22:40:18.486Z,58.09
2023-05-20T22:42:45.178Z,57.93
2023-05-20T22:45:11.743Z,58.00
2023-05-20T22:47:38.391Z,58.54
2023-05-20T22:50:05.479Z,58.06
2023-05-20T22:52:32.620Z,58.39
2023-05-20T22:54:59.236Z,58.86
2023-05-20T22:57:25.957Z,58.41
2023-05-20T22:59:54.042Z,58.74
2023-05-20T23:02:20.840Z,58.90
2023-05-20T23:04:47.632Z,58.91
2023-05-20T23:07:14.778Z,59.20
2023-05-20T23:09:42.947Z,59.03
2023-05-20T23:12:09.533Z,59.26
2023-05-20T23:14:36.231Z,59.23
2023-05-20T23:17:03.040Z,60.08
2023-05-20T23:19:29.780Z,60.19
2023-05-20T23:21:56.959Z,59.92
2023-05-20T23:24:23.649Z,59.92
2023-05-20T23:26:50.655Z,59.72
2023-05-20T23:29:17.172Z,60.40
2023-05-20T23:31:43.686Z,60.52
2023-05-20T23:34:10.355Z,60.36
2023-05-20T23:36:37.235Z,60.44
2023-05-20T23:39:03.925Z,60.28
2023-05-20T23:41:30.591Z,60.75
2023-05-20T23:43:57.152Z,60.69
2023-05-20T23:46:23.786Z,60.94
2023-05-20T23:48:50.459Z,61.29
2023-05-20T23:51:17.317Z,61.27
2023-05-20T23:53:45.839Z,61.26
2023-05-20T23:56:12.461Z,61.15
2023-05-20T23:58:39.236Z,61.37
